Terminal Aerodrome Forecast
Issued by NWS Topeka, KS

Home | Current Version | Previous Version | Graphics & Text | Print | Product List | Glossary On
Versions: 1 2 3 4 5 6 7 8 9 10 11 12 13 14 15 16 17 18
000
FTUS43 KTOP 172324
TAFTOP
TAF
KTOP 172324Z 1800/1824 09005KT P6SM BKN035
     FM180400 10005KT P6SM VCSH BKN025
     FM180800 11005KT P6SM VCSH OVC015
     FM181000 12005KT 5SM -SHRA VCTS OVC009CB
     FM181400 15008KT 5SM -SHRA VCTS OVC015CB
     FM181800 16010KT P6SM BKN035=

USA.gov is the U.S. government's official web portal to all federal, state and local government web resources and services.